Thunder radar more information blitzortung!


Radar de pluja more information rain snow radar


Visita la nostra xarxa de llocs de meteo:

Template documentation
and downloads

And another site



No particular awareness of the weather is required.    There are no Weather-warnings

Pagina Historial Weather Underground text

Diari Resum Desembre 5, 2017 Unitats:  Imperial    Mètric   Tant
« Previous Dia
SegĂźent Dia »
Diari Setmana Mensual Anual Personalitzada
  Maxima: Minima: Media:
Temperatura: 50 °F 32 °F 43.9 °F
Punt de rosada: 33.1 °F 16.3 °F 22.1 °F
Humitat: 66 % 31 % 44 %
Wind Speed: 5.8 mph 0 mph 1.5 mph
RĂ fegues de vent: 5.8 mph - -
Vent:- - ESE
Pression baro: 30.6 in 30.2 in -
Precipitacions: 0 in    
Historical Graphs
 
 
Dades de taula per Desembre 5, 2017
Temps Temperatura Punt de rosada Pression baro Vent Wind Speed RĂ fegues de vent Humitat Rainfall Rate (Hourly)
00:00 45.3 °F 16.3 °F 30.2 in East 2 mph 2 mph 31 % 0 in
00:05 45.3 °F 16.3 °F 30.2 in East 2 mph 2 mph 31 % 0 in
00:14 45.3 °F 16.3 °F 30.2 in East 2 mph 2 mph 31 % 0 in
00:15 32.7 °F 18 °F 30.6 in Calm     54 % 0 in
00:20 45.3 °F 16.3 °F 30.2 in East 2 mph 2 mph 31 % 0 in
00:25 45.3 °F 16.3 °F 30.2 in East 2 mph 2 mph 31 % 0 in
00:30 45.3 °F 16.3 °F 30.2 in East 2 mph 2 mph 31 % 0 in
00:35 45.3 °F 16.3 °F 30.2 in East 2 mph 2 mph 31 % 0 in
00:40 45.3 °F 16.3 °F 30.2 in East 2 mph 2 mph 31 % 0 in
00:45 45.3 °F 16.3 °F 30.2 in East 2 mph 2 mph 31 % 0 in
00:50 45.3 °F 16.3 °F 30.2 in East 2 mph 2 mph 31 % 0 in
00:55 45.3 °F 16.3 °F 30.2 in East 2 mph 2 mph 31 % 0 in
01:00 45.3 °F 16.3 °F 30.2 in East 2 mph 2 mph 31 % 0 in
01:05 45.3 °F 16.3 °F 30.2 in East 2 mph 2 mph 31 % 0 in
01:10 45.3 °F 16.3 °F 30.2 in East 2 mph 2 mph 31 % 0 in
01:15 45.3 °F 16.3 °F 30.2 in East 2 mph 2 mph 31 % 0 in
01:20 45.3 °F 16.3 °F 30.2 in East 2 mph 2 mph 31 % 0 in
01:25 45.3 °F 16.3 °F 30.2 in East 2 mph 2 mph 31 % 0 in
01:30 45.3 °F 16.3 °F 30.2 in East 2 mph 2 mph 31 % 0 in
01:35 45.3 °F 16.3 °F 30.2 in East 2 mph 2 mph 31 % 0 in
01:40 45.3 °F 16.3 °F 30.2 in East 2 mph 2 mph 31 % 0 in
01:45 45.3 °F 16.3 °F 30.2 in East 2 mph 2 mph 31 % 0 in
01:50 45.3 °F 16.3 °F 30.2 in East 2 mph 2 mph 31 % 0 in
01:55 45.3 °F 16.3 °F 30.2 in East 2 mph 2 mph 31 % 0 in
02:01 45.3 °F 16.3 °F 30.2 in East 2 mph 2 mph 31 % 0 in
02:05 32.9 °F 19.2 °F 30.6 in NW 2 mph 2 mph 57 % 0 in
02:10 45.3 °F 16.3 °F 30.2 in East 2 mph 2 mph 31 % 0 in
02:15 45.3 °F 16.3 °F 30.2 in East 2 mph 2 mph 31 % 0 in
02:20 45.3 °F 16.3 °F 30.2 in East 2 mph 2 mph 31 % 0 in
02:25 33.3 °F 20.1 °F 30.6 in NNW 1 mph 2 mph 58 % 0 in
02:30 45.3 °F 16.3 °F 30.2 in East 2 mph 2 mph 31 % 0 in
02:35 33.8 °F 20.7 °F 30.6 in North 1 mph 2 mph 58 % 0 in
02:40 45.3 °F 16.3 °F 30.2 in East 2 mph 2 mph 31 % 0 in
02:45 45.3 °F 16.3 °F 30.2 in East 2 mph 2 mph 31 % 0 in
02:50 45.3 °F 16.3 °F 30.2 in East 2 mph 2 mph 31 % 0 in
02:55 45.3 °F 16.3 °F 30.2 in East 2 mph 2 mph 31 % 0 in
03:00 45.3 °F 16.3 °F 30.2 in East 2 mph 2 mph 31 % 0 in
03:05 45.3 °F 16.3 °F 30.2 in East 2 mph 2 mph 31 % 0 in
03:10 45.3 °F 16.3 °F 30.2 in East 2 mph 2 mph 31 % 0 in
03:15 45.3 °F 16.3 °F 30.2 in East 2 mph 2 mph 31 % 0 in
03:20 45.3 °F 16.3 °F 30.2 in East 2 mph 2 mph 31 % 0 in
03:25 45.3 °F 16.3 °F 30.2 in East 2 mph 2 mph 31 % 0 in
03:30 45.3 °F 16.3 °F 30.2 in East 2 mph 2 mph 31 % 0 in
03:35 45.3 °F 16.3 °F 30.2 in East 2 mph 2 mph 31 % 0 in
03:40 45.3 °F 16.3 °F 30.2 in East 2 mph 2 mph 31 % 0 in
03:45 45.3 °F 16.3 °F 30.2 in East 2 mph 2 mph 31 % 0 in
03:50 45.3 °F 16.3 °F 30.2 in East 2 mph 2 mph 31 % 0 in
03:55 45.3 °F 16.3 °F 30.2 in East 2 mph 2 mph 31 % 0 in
04:05 45.3 °F 16.3 °F 30.2 in East 2 mph 2 mph 31 % 0 in
04:10 45.3 °F 16.3 °F 30.2 in East 2 mph 2 mph 31 % 0 in
04:15 45.3 °F 16.3 °F 30.2 in East 2 mph 2 mph 31 % 0 in
04:20 45.3 °F 16.3 °F 30.2 in East 2 mph 2 mph 31 % 0 in
04:25 45.3 °F 16.3 °F 30.2 in East 2 mph 2 mph 31 % 0 in
04:30 45.3 °F 16.3 °F 30.2 in East 2 mph 2 mph 31 % 0 in
04:35 45.3 °F 16.3 °F 30.2 in East 2 mph 2 mph 31 % 0 in
04:40 45.3 °F 16.3 °F 30.2 in East 2 mph 2 mph 31 % 0 in
04:45 45.3 °F 16.3 °F 30.2 in East 2 mph 2 mph 31 % 0 in
04:50 45.3 °F 16.3 °F 30.2 in East 2 mph 2 mph 31 % 0 in
04:55 45.3 °F 16.3 °F 30.2 in East 2 mph 2 mph 31 % 0 in
05:00 45.3 °F 16.3 °F 30.2 in East 2 mph 2 mph 31 % 0 in
05:05 45.3 °F 16.3 °F 30.2 in East 2 mph 2 mph 31 % 0 in
05:10 45.3 °F 16.3 °F 30.2 in East 2 mph 2 mph 31 % 0 in
05:15 45.3 °F 16.3 °F 30.2 in East 2 mph 2 mph 31 % 0 in
05:20 45.3 °F 16.3 °F 30.2 in East 2 mph 2 mph 31 % 0 in
05:25 45.3 °F 16.3 °F 30.2 in East 2 mph 2 mph 31 % 0 in
05:35 45.3 °F 16.3 °F 30.2 in East 2 mph 2 mph 31 % 0 in
05:40 45.3 °F 16.3 °F 30.2 in East 2 mph 2 mph 31 % 0 in
05:45 45.3 °F 16.3 °F 30.2 in East 2 mph 2 mph 31 % 0 in
05:50 45.3 °F 16.3 °F 30.2 in East 2 mph 2 mph 31 % 0 in
05:55 45.3 °F 16.3 °F 30.2 in East 2 mph 2 mph 31 % 0 in
06:05 45.3 °F 16.3 °F 30.2 in East 2 mph 2 mph 31 % 0 in
06:10 45.3 °F 16.3 °F 30.2 in East 2 mph 2 mph 31 % 0 in
06:15 45.3 °F 16.3 °F 30.2 in East 2 mph 2 mph 31 % 0 in
06:20 45.3 °F 16.3 °F 30.2 in East 2 mph 2 mph 31 % 0 in
06:25 45.3 °F 16.3 °F 30.2 in East 2 mph 2 mph 31 % 0 in
06:30 45.3 °F 16.3 °F 30.2 in East 2 mph 2 mph 31 % 0 in
06:35 45.3 °F 16.3 °F 30.2 in East 2 mph 2 mph 31 % 0 in
06:40 45.3 °F 16.3 °F 30.2 in East 2 mph 2 mph 31 % 0 in
06:45 45.3 °F 16.3 °F 30.2 in East 2 mph 2 mph 31 % 0 in
06:50 45.3 °F 16.3 °F 30.2 in East 2 mph 2 mph 31 % 0 in
06:55 45.3 °F 16.3 °F 30.2 in East 2 mph 2 mph 31 % 0 in
07:00 45.3 °F 16.3 °F 30.2 in East 2 mph 2 mph 31 % 0 in
07:05 45.3 °F 16.3 °F 30.2 in East 2 mph 2 mph 31 % 0 in
07:10 45.3 °F 16.3 °F 30.2 in East 2 mph 2 mph 31 % 0 in
07:15 45.3 °F 16.3 °F 30.2 in East 2 mph 2 mph 31 % 0 in
07:20 45.3 °F 16.3 °F 30.2 in East 2 mph 2 mph 31 % 0 in
07:25 45.3 °F 16.3 °F 30.2 in East 2 mph 2 mph 31 % 0 in
07:30 45.3 °F 16.3 °F 30.2 in East 2 mph 2 mph 31 % 0 in
07:35 45.3 °F 16.3 °F 30.2 in East 2 mph 2 mph 31 % 0 in
07:40 45.3 °F 16.3 °F 30.2 in East 2 mph 2 mph 31 % 0 in
07:45 45.3 °F 16.3 °F 30.2 in East 2 mph 2 mph 31 % 0 in
07:50 45.3 °F 16.3 °F 30.2 in East 2 mph 2 mph 31 % 0 in
07:55 45.3 °F 16.3 °F 30.2 in East 2 mph 2 mph 31 % 0 in
08:00 45.3 °F 16.3 °F 30.2 in East 2 mph 2 mph 31 % 0 in
08:05 45.3 °F 16.3 °F 30.2 in East 2 mph 2 mph 31 % 0 in
08:10 45.3 °F 16.3 °F 30.2 in East 2 mph 2 mph 31 % 0 in
08:15 45.3 °F 16.3 °F 30.2 in East 2 mph 2 mph 31 % 0 in
08:20 45.3 °F 16.3 °F 30.2 in East 2 mph 2 mph 31 % 0 in
08:25 45.3 °F 16.3 °F 30.2 in East 2 mph 2 mph 31 % 0 in
08:30 45.3 °F 16.3 °F 30.2 in East 2 mph 2 mph 31 % 0 in
08:35 45.3 °F 16.3 °F 30.2 in East 2 mph 2 mph 31 % 0 in
08:40 45.3 °F 16.3 °F 30.2 in East 2 mph 2 mph 31 % 0 in
08:45 45.3 °F 16.3 °F 30.2 in East 2 mph 2 mph 31 % 0 in
08:50 45.3 °F 16.3 °F 30.2 in East 2 mph 2 mph 31 % 0 in
08:55 45.3 °F 16.3 °F 30.2 in East 2 mph 2 mph 31 % 0 in
09:00 45.3 °F 16.3 °F 30.2 in East 2 mph 2 mph 31 % 0 in
09:05 45.3 °F 16.3 °F 30.2 in East 2 mph 2 mph 31 % 0 in
09:10 45.3 °F 16.3 °F 30.2 in East 2 mph 2 mph 31 % 0 in
09:15 45.3 °F 16.3 °F 30.2 in East 2 mph 2 mph 31 % 0 in
09:20 45.3 °F 16.3 °F 30.2 in East 2 mph 2 mph 31 % 0 in
09:25 45.3 °F 16.3 °F 30.2 in East 2 mph 2 mph 31 % 0 in
09:30 45.3 °F 16.3 °F 30.2 in East 2 mph 2 mph 31 % 0 in
09:35 45.3 °F 16.3 °F 30.2 in East 2 mph 2 mph 31 % 0 in
09:40 45.3 °F 16.3 °F 30.2 in East 2 mph 2 mph 31 % 0 in
09:45 45.3 °F 16.3 °F 30.2 in East 2 mph 2 mph 31 % 0 in
09:50 45.3 °F 16.3 °F 30.2 in East 2 mph 2 mph 31 % 0 in
09:55 45.3 °F 16.3 °F 30.2 in East 2 mph 2 mph 31 % 0 in
10:00 45.3 °F 16.3 °F 30.2 in East 2 mph 2 mph 31 % 0 in
10:05 45.3 °F 16.3 °F 30.2 in East 2 mph 2 mph 31 % 0 in
10:10 45.3 °F 16.3 °F 30.2 in East 2 mph 2 mph 31 % 0 in
10:15 45.3 °F 16.3 °F 30.2 in East 2 mph 2 mph 31 % 0 in
10:20 45.3 °F 16.3 °F 30.2 in East 2 mph 2 mph 31 % 0 in
10:25 45.3 °F 16.3 °F 30.2 in East 2 mph 2 mph 31 % 0 in
10:30 45.3 °F 16.3 °F 30.2 in East 2 mph 2 mph 31 % 0 in
10:35 45.3 °F 16.3 °F 30.2 in East 2 mph 2 mph 31 % 0 in
10:40 45.3 °F 16.3 °F 30.2 in East 2 mph 2 mph 31 % 0 in
10:45 45.3 °F 16.3 °F 30.2 in East 2 mph 2 mph 31 % 0 in
10:50 45.3 °F 16.3 °F 30.2 in East 2 mph 2 mph 31 % 0 in
10:55 45.3 °F 16.3 °F 30.2 in East 2 mph 2 mph 31 % 0 in
11:00 45.3 °F 16.3 °F 30.2 in East 2 mph 2 mph 31 % 0 in
11:05 45.3 °F 16.3 °F 30.2 in East 2 mph 2 mph 31 % 0 in
11:10 45.3 °F 16.3 °F 30.2 in East 2 mph 2 mph 31 % 0 in
11:15 45.3 °F 16.3 °F 30.2 in East 2 mph 2 mph 31 % 0 in
11:20 45.3 °F 16.3 °F 30.2 in East 2 mph 2 mph 31 % 0 in
11:25 45.3 °F 16.3 °F 30.2 in East 2 mph 2 mph 31 % 0 in
11:30 45.3 °F 16.3 °F 30.2 in East 2 mph 2 mph 31 % 0 in
11:35 45.3 °F 16.3 °F 30.2 in East 2 mph 2 mph 31 % 0 in
11:40 45.3 °F 16.3 °F 30.2 in East 2 mph 2 mph 31 % 0 in
11:45 45.3 °F 16.3 °F 30.2 in East 2 mph 2 mph 31 % 0 in
11:50 45.3 °F 16.3 °F 30.2 in East 2 mph 2 mph 31 % 0 in
11:55 45.3 °F 16.3 °F 30.2 in East 2 mph 2 mph 31 % 0 in
12:00 45.3 °F 16.3 °F 30.2 in East 2 mph 2 mph 31 % 0 in
12:05 45.3 °F 16.3 °F 30.2 in East 2 mph 2 mph 31 % 0 in
12:10 45.3 °F 16.3 °F 30.2 in East 2 mph 2 mph 31 % 0 in
12:15 45.3 °F 16.3 °F 30.2 in East 2 mph 2 mph 31 % 0 in
12:20 45.3 °F 16.3 °F 30.2 in East 2 mph 2 mph 31 % 0 in
12:25 45.3 °F 16.3 °F 30.2 in East 2 mph 2 mph 31 % 0 in
12:30 45.3 °F 16.3 °F 30.2 in East 2 mph 2 mph 31 % 0 in
12:35 45.3 °F 16.3 °F 30.2 in East 2 mph 2 mph 31 % 0 in
12:40 45.3 °F 16.3 °F 30.2 in East 2 mph 2 mph 31 % 0 in
12:45 45.3 °F 16.3 °F 30.2 in East 2 mph 2 mph 31 % 0 in
12:55 45.3 °F 16.3 °F 30.2 in East 2 mph 2 mph 31 % 0 in
13:00 45.3 °F 16.3 °F 30.2 in East 2 mph 2 mph 31 % 0 in
13:20 46.6 °F 30.7 °F 30.6 in NE 5.8 mph 5.8 mph 54 % 0 in
13:25 46.8 °F 30.9 °F 30.6 in ENE 2.6 mph 2.6 mph 54 % 0 in
13:30 47.3 °F 31.5 °F 30.6 in NNE 2.9 mph 2.9 mph 54 % 0 in
13:35 47.5 °F 31.6 °F 30.6 in ESE 5.8 mph 5.8 mph 54 % 0 in
13:40 47.7 °F 31.8 °F 30.6 in ENE 3.5 mph 3.5 mph 54 % 0 in
13:50 47.7 °F 31.5 °F 30.6 in ENE 2.3 mph 2.3 mph 53 % 0 in
13:55 47.8 °F 31.5 °F 30.6 in WNW 2.4 mph 2.4 mph 53 % 0 in
14:00 48 °F 31.6 °F 30.6 in NNE 4.6 mph 4.6 mph 53 % 0 in
14:05 48.2 °F 31.8 °F 30.6 in WNW 2.3 mph 2.3 mph 53 % 0 in
14:10 48.2 °F 31.8 °F 30.6 in NNE 2.3 mph 2.3 mph 53 % 0 in
14:15 48.6 °F 32.2 °F 30.6 in North 2.9 mph 2.9 mph 53 % 0 in
14:20 48.6 °F 32.2 °F 30.6 in NNE 2.3 mph 2.3 mph 53 % 0 in
14:25 48.7 °F 32.4 °F 30.6 in ENE 2.4 mph 2.4 mph 53 % 0 in
14:30 48.9 °F 32.5 °F 30.6 in NNE 1.6 mph 1.6 mph 53 % 0 in
14:35 48.9 °F 32.5 °F 30.6 in North 2.3 mph 2.3 mph 53 % 0 in
14:40 48.9 °F 32.5 °F 30.6 in ENE 2.3 mph 2.3 mph 53 % 0 in
14:45 48.9 °F 32 °F 30.6 in NE 4.6 mph 4.6 mph 52 % 0 in
14:50 48.9 °F 32 °F 30.6 in NNE 2.3 mph 2.3 mph 52 % 0 in
14:55 49.3 °F 32.4 °F 30.6 in NNW 1.4 mph 1.4 mph 52 % 0 in
15:00 49.3 °F 32.4 °F 30.6 in NNW 1.4 mph 1.4 mph 52 % 0 in
15:05 49.5 °F 32.5 °F 30.6 in North 2.3 mph 2.3 mph 52 % 0 in
15:10 49.6 °F 32.7 °F 30.6 in NE 2.3 mph 2.3 mph 52 % 0 in
15:15 49.6 °F 32.7 °F 30.5 in NE 2.3 mph 2.3 mph 52 % 0 in
15:20 49.5 °F 32.5 °F 30.5 in NNW 2.3 mph 2.3 mph 52 % 0 in
15:25 49.6 °F 32.7 °F 30.5 in NNE 2.9 mph 2.9 mph 52 % 0 in
15:30 49.6 °F 32.7 °F 30.5 in NE 2.3 mph 2.3 mph 52 % 0 in
15:35 49.8 °F 32.9 °F 30.5 in NE 1.2 mph 1.2 mph 52 % 0 in
15:40 49.8 °F 32.9 °F 30.5 in NE 2.6 mph 2.6 mph 52 % 0 in
15:45 49.8 °F 32.9 °F 30.5 in NW 2.3 mph 2.3 mph 52 % 0 in
15:50 50 °F 33.1 °F 30.5 in NNW 1.2 mph   52 % 0 in
15:56 49.8 °F 32.9 °F 30.5 in NNW 1.6 mph 1.6 mph 52 % 0 in
16:01 50 °F 33.1 °F 30.5 in Calm     52 % 0 in
16:06 50 °F 33.1 °F 30.5 in ENE 1.2 mph   52 % 0 in
16:11 49.8 °F 32.9 °F 30.5 in North 1.2 mph 1.2 mph 52 % 0 in
16:16 49.8 °F 32.9 °F 30.5 in NNE 1.4 mph 1.4 mph 52 % 0 in
16:21 49.8 °F 32.9 °F 30.5 in Calm     52 % 0 in
16:26 49.8 °F 32.9 °F 30.5 in NNW 1.6 mph 1.6 mph 52 % 0 in
16:31 49.8 °F 32.9 °F 30.5 in NNE 1.2 mph   52 % 0 in
16:36 49.6 °F 32.7 °F 30.5 in NNE 1.2 mph 1.2 mph 52 % 0 in
16:41 49.5 °F 32.5 °F 30.5 in NNW 1.2 mph   52 % 0 in
16:46 49.5 °F 32.5 °F 30.5 in Calm     52 % 0 in
16:51 49.5 °F 32.5 °F 30.5 in North 1.6 mph 1.6 mph 52 % 0 in
16:56 49.3 °F 32.4 °F 30.5 in NNE 1.2 mph 1.2 mph 52 % 0 in
17:01 48.9 °F 32 °F 30.5 in Calm     52 % 0 in
17:06 48.7 °F 31.8 °F 30.5 in NW 1.2 mph   52 % 0 in
17:11 48.6 °F 31.6 °F 30.5 in NW 1.2 mph   52 % 0 in
17:16 48.4 °F 31.5 °F 30.5 in Calm     52 % 0 in
17:21 48 °F 31.3 °F 30.5 in Calm     52 % 0 in
17:26 47.8 °F 30.9 °F 30.5 in WNW 1.2 mph   52 % 0 in
17:31 47.5 °F 30.7 °F 30.5 in Calm     52 % 0 in
17:36 47.3 °F 30.6 °F 30.5 in Calm     52 % 0 in
17:41 47.1 °F 30.4 °F 30.5 in Calm     52 % 0 in
17:46 46.9 °F 30.2 °F 30.5 in NW 1.2 mph   52 % 0 in
17:51 46.8 °F 30 °F 30.5 in NW 1.4 mph   52 % 0 in
17:56 46.6 °F 29.8 °F 30.5 in SW 1.2 mph 1.2 mph 52 % 0 in
18:01 46.4 °F 29.7 °F 30.5 in Calm     52 % 0 in
18:06 46.2 °F 29.5 °F 30.5 in Calm     52 % 0 in
18:11 46 °F 29.5 °F 30.5 in Calm     52 % 0 in
18:16 46.2 °F 29.5 °F 30.5 in Calm     52 % 0 in
18:21 46 °F 29.5 °F 30.5 in Calm     52 % 0 in
18:25 36.3 °F 23.7 °F 30.6 in Calm     60 % 0 in
18:26 46 °F 29.5 °F 30.5 in WSW 1.6 mph 1.6 mph 52 % 0 in
18:31 46 °F 29.5 °F 30.5 in Calm     52 % 0 in
18:35 36.3 °F 23.7 °F 30.6 in Calm     60 % 0 in
18:36 45.9 °F 29.1 °F 30.5 in WSW 1.4 mph   52 % 0 in
18:41 45.7 °F 28.9 °F 30.5 in Calm     52 % 0 in
18:45 36.3 °F 24.1 °F 30.6 in Calm     61 % 0 in
18:46 45.3 °F 28.8 °F 30.5 in WSW 1.2 mph   52 % 0 in
18:51 45.1 °F 28.6 °F 30.5 in South 2.4 mph 2.4 mph 52 % 0 in
18:55 36 °F 23.7 °F 30.6 in Calm     61 % 0 in
18:56 45 °F 28.4 °F 30.5 in Calm     52 % 0 in
19:01 44.8 °F 28.2 °F 30.5 in SW 1.2 mph   52 % 0 in
19:05 35.8 °F 23.5 °F 30.6 in Calm     61 % 0 in
19:06 44.8 °F 28.2 °F 30.5 in SW 2.3 mph 2.3 mph 52 % 0 in
19:11 45 °F 28.4 °F 30.5 in West 2.3 mph 2.3 mph 52 % 0 in
19:15 35.6 °F 23.5 °F 30.6 in Calm     61 % 0 in
19:16 45 °F 28.4 °F 30.5 in West 2.3 mph 2.3 mph 52 % 0 in
19:21 45 °F 28.4 °F 30.5 in WSW 2.3 mph 2.3 mph 52 % 0 in
19:25 35.8 °F 24.1 °F 30.6 in Calm     62 % 0 in
19:26 44.8 °F 27.7 °F 30.5 in West 2.3 mph 2.3 mph 51 % 0 in
19:31 44.6 °F 27.7 °F 30.6 in WSW 2.3 mph 2.3 mph 51 % 0 in
19:35 35.4 °F 23.7 °F 30.6 in Calm     62 % 0 in
19:36 44.4 °F 27.3 °F 30.6 in SW 2.3 mph 2.3 mph 51 % 0 in
19:41 44.1 °F 27.1 °F 30.6 in SW 2.3 mph 2.3 mph 51 % 0 in
19:45 35.2 °F 23.5 °F 30.6 in Calm     62 % 0 in
19:46 43.7 °F 27.1 °F 30.5 in Calm     52 % 0 in
19:51 43.5 °F 27 °F 30.5 in Calm     52 % 0 in
19:55 35.1 °F 23.4 °F 30.5 in Calm     62 % 0 in
19:56 43.3 °F 27 °F 30.5 in Calm     52 % 0 in
20:01 43.2 °F 26.8 °F 30.5 in Calm     52 % 0 in
20:05 34.9 °F 23.2 °F 30.6 in Calm     62 % 0 in
20:06 43.2 °F 26.8 °F 30.5 in WNW 1.4 mph 1.4 mph 52 % 0 in
20:11 43 °F 26.4 °F 30.5 in WNW 1.4 mph 1.4 mph 52 % 0 in
20:15 34.7 °F 23 °F 30.6 in SSW 1 mph 1 mph 62 % 0 in
20:16 43.2 °F 26.8 °F 30.6 in Calm     52 % 0 in
20:21 42.8 °F 26.4 °F 30.6 in NNW 1.2 mph 1.2 mph 52 % 0 in
20:25 34.5 °F 22.8 °F 30.5 in SSW 1 mph 2 mph 62 % 0 in
20:26 42.8 °F 26.4 °F 30.6 in NNE 1.2 mph 1.4 mph 52 % 0 in
20:31 42.8 °F 26.4 °F 30.6 in Calm     52 % 0 in
20:35 34.3 °F 22.6 °F 30.5 in SW 1 mph 2 mph 62 % 0 in
20:36 42.6 °F 26.2 °F 30.6 in NNE 1.2 mph   52 % 0 in
20:41 42.6 °F 26.2 °F 30.6 in Calm     52 % 0 in
20:45 34.3 °F 22.6 °F 30.5 in Calm   2 mph 62 % 0 in
20:46 42.8 °F 26.4 °F 30.6 in Calm     52 % 0 in
20:51 43 °F 26.4 °F 30.6 in NNE 1.2 mph   52 % 0 in
20:55 34.3 °F 23 °F 30.5 in WSW 2 mph 2 mph 63 % 0 in
20:56 43 °F 26.4 °F 30.6 in Calm     52 % 0 in
21:01 43 °F 27 °F 30.6 in Calm     53 % 0 in
21:05 34.3 °F 23 °F 30.5 in Calm   3 mph 63 % 0 in
21:06 43 °F 27 °F 30.6 in NNW 1.6 mph   53 % 0 in
21:11 42.8 °F 26.8 °F 30.6 in NNW 1.2 mph   53 % 0 in
21:15 34.5 °F 23.2 °F 30.5 in Calm   2 mph 63 % 0 in
21:16 42.6 °F 26.8 °F 30.6 in Calm     53 % 0 in
21:21 42.3 °F 26.2 °F 30.6 in WNW 2.3 mph 2.3 mph 53 % 0 in
21:25 34.2 °F 22.8 °F 30.5 in Calm   1 mph 63 % 0 in
21:26 41.7 °F 25.9 °F 30.6 in West 2.3 mph 2.3 mph 53 % 0 in
21:31 41.2 °F 25.3 °F 30.6 in WSW 2.3 mph 2.3 mph 53 % 0 in
21:35 33.8 °F 22.5 °F 30.5 in Calm   2 mph 63 % 0 in
21:36 41.2 °F 25.3 °F 30.6 in SW 2.3 mph 2.3 mph 53 % 0 in
21:41 40.8 °F 25 °F 30.6 in WSW 2.3 mph 2.3 mph 53 % 0 in
21:45 33.4 °F 22.3 °F 30.5 in Calm   1 mph 63 % 0 in
21:46 40.8 °F 25 °F 30.6 in SW 2.3 mph 2.4 mph 53 % 0 in
21:51 40.1 °F 24.3 °F 30.6 in SW 2.4 mph 2.4 mph 53 % 0 in
21:55 33.3 °F 22.5 °F 30.5 in Calm   1 mph 64 % 0 in
21:56 40.1 °F 24.3 °F 30.6 in WSW 2.4 mph 2.4 mph 53 % 0 in
22:01 40.1 °F 24.3 °F 30.6 in WSW 2.3 mph 2.3 mph 53 % 0 in
22:05 33.3 °F 22.5 °F 30.5 in Calm     64 % 0 in
22:06 39.9 °F 24.6 °F 30.6 in Calm     54 % 0 in
22:11 39.7 °F 24.4 °F 30.6 in Calm     54 % 0 in
22:15 33.3 °F 22.5 °F 30.5 in Calm   1 mph 64 % 0 in
22:16 39.9 °F 24.6 °F 30.6 in WSW 1.2 mph 1.4 mph 54 % 0 in
22:21 39.9 °F 24.6 °F 30.6 in Calm     54 % 0 in
22:25 33.4 °F 22.8 °F 30.5 in Calm   2 mph 65 % 0 in
22:26 39.7 °F 25 °F 30.6 in North 1.2 mph   55 % 0 in
22:31 39.4 °F 24.4 °F 30.6 in NE 2.3 mph 2.3 mph 55 % 0 in
22:35 33.3 °F 22.5 °F 30.5 in Calm     64 % 0 in
22:36 39.2 °F 24.4 °F 30.6 in NNE 1.6 mph   55 % 0 in
22:41 39.4 °F 25 °F 30.6 in NNE 1.2 mph   56 % 0 in
22:45 33.1 °F 22.6 °F 30.5 in Calm     65 % 0 in
22:46 39 °F 24.3 °F 30.6 in Calm     55 % 0 in
22:51 38.8 °F 24.4 °F 30.6 in Calm     56 % 0 in
22:55 32 °F 21.2 °F 30.5 in Calm   2 mph 64 % 0 in
22:56 38.8 °F 24.4 °F 30.6 in Calm     56 % 0 in
23:01 38.7 °F 24.3 °F 30.6 in Calm     56 % 0 in
23:05 32.4 °F 21.9 °F 30.5 in West 1 mph 2 mph 65 % 0 in
23:06 38.5 °F 24.1 °F 30.6 in Calm     56 % 0 in
23:11 38.5 °F 24.1 °F 30.6 in SSW 1.2 mph 1.2 mph 56 % 0 in
23:15 32.4 °F 21.9 °F 30.5 in Calm   2 mph 65 % 0 in
23:16 38.3 °F 24.1 °F 30.6 in Calm     56 % 0 in
23:21 38.1 °F 24.3 °F 30.6 in Calm     57 % 0 in
23:25 32.4 °F 21.9 °F 30.5 in Calm   2 mph 65 % 0 in
23:26 37.9 °F 24.1 °F 30.6 in Calm     57 % 0 in
23:31 37.8 °F 23.9 °F 30.6 in Calm     57 % 0 in
23:35 32.2 °F 22.1 °F 30.5 in Calm   1 mph 66 % 0 in
23:36 37.8 °F 24.3 °F 30.6 in Calm     58 % 0 in
23:41 37.6 °F 24.1 °F 30.6 in Calm     58 % 0 in
23:45 32 °F 21.6 °F 30.5 in WSW 1 mph 2 mph 65 % 0 in
23:46 37.4 °F 24.1 °F 30.6 in SSW 1.2 mph 1.2 mph 58 % 0 in
23:51 37.2 °F 23.7 °F 30.6 in Calm     58 % 0 in
23:55 32.2 °F 21.7 °F 30.5 in WSW 1 mph 2 mph 65 % 0 in
23:56 37 °F 23.5 °F 30.6 in Calm     58 % 0 in
Meteo Sesrovires
Elogis d' Weather Underground - 4.25 mb

Guio original per  Jim McMurry - jmcmurry@mwt.net Adaptat per a la plantilla per  Wim van der Kuil - Leuven-Template.eu

Trobareu la nostra informacio del temps tambe a:

Weather Underground

AWEKAS